Time;durP1;ratioP1;P1;durP2;ratioP2;P2;SDS_P1;SDS_P2;PMS_P1;PMS_P2;Temp;Humidity;BMP_temperature;BMP_pressure;BME280_temperature;BME280_humidity;BME280_pressure;Samples;Min_cycle;Max_cycle;Signal;HPM_P1;HPM_P2
2023/06/25 00:00:17;;;;;;;5.60;4.40;;;;;;;22.12;86.96;100529.97;5084401;28;20396;-73
2023/06/25 00:02:43;;;;;;;7.15;4.65;;;;;;;22.09;88.05;100530.66;5101272;28;20096;-73
2023/06/25 00:05:08;;;;;;;6.53;4.30;;;;;;;22.05;88.76;100527.78;5101019;28;20027;-73
2023/06/25 00:07:35;;;;;;;5.85;4.30;;;;;;;22.03;88.76;100532.16;5101188;28;20446;-73
2023/06/25 00:10:00;;;;;;;5.78;4.60;;;;;;;21.99;88.52;100529.28;5119316;28;20712;-73
2023/06/25 00:12:26;;;;;;;5.15;3.95;;;;;;;21.94;89.20;100538.03;5100725;28;20046;-73
2023/06/25 00:14:51;;;;;;;6.47;3.78;;;;;;;21.91;89.27;100529.50;5067022;28;20035;-73
2023/06/25 00:17:21;;;;;;;8.77;4.95;;;;;;;21.88;89.84;100525.41;5101355;28;20023;-73
2023/06/25 00:19:46;;;;;;;4.93;4.07;;;;;;;21.89;91.01;100520.56;5084265;28;20027;-73
2023/06/25 00:22:12;;;;;;;5.13;4.22;;;;;;;21.84;90.48;100519.66;5119058;28;20043;-73
2023/06/25 00:24:40;;;;;;;5.28;4.10;;;;;;;21.83;91.14;100523.66;5100774;28;20035;-73
2023/06/25 00:27:06;;;;;;;5.03;4.28;;;;;;;21.79;91.28;100516.31;5118668;28;20064;-73
2023/06/25 00:29:34;;;;;;;5.50;4.13;;;;;;;21.77;91.46;100507.38;5083874;28;20031;-73
2023/06/25 00:32:00;;;;;;;6.90;4.60;;;;;;;21.74;91.57;100508.13;5084002;28;20028;-74
2023/06/25 00:34:25;;;;;;;5.95;4.60;;;;;;;21.74;92.63;100508.13;5080442;28;20061;-73
2023/06/25 00:36:52;;;;;;;7.00;4.97;;;;;;;21.71;91.72;100500.38;5053768;28;20544;-73
2023/06/25 00:39:18;;;;;;;7.35;4.40;;;;;;;21.71;92.31;100503.22;5083935;28;20059;-73
2023/06/25 00:41:44;;;;;;;5.85;4.45;;;;;;;21.70;92.14;100495.91;5100624;28;20112;-73
2023/06/25 00:44:09;;;;;;;6.43;4.60;;;;;;;21.67;92.28;100491.00;5083380;28;20031;-73
2023/06/25 00:46:34;;;;;;;5.18;4.10;;;;;;;21.66;92.15;100486.53;5118648;28;20028;-73
2023/06/25 00:49:05;;;;;;;6.82;4.57;;;;;;;21.63;93.15;100479.63;5118376;28;20062;-74
2023/06/25 00:51:31;;;;;;;7.28;4.22;;;;;;;21.60;94.63;100481.19;5118575;28;20054;-73
2023/06/25 00:53:57;;;;;;;5.18;4.30;;;;;;;21.58;94.29;100483.53;5080178;28;20047;-73
2023/06/25 00:56:27;;;;;;;5.60;4.63;;;;;;;21.56;93.91;100485.94;5090460;28;20024;-73
2023/06/25 00:59:01;;;;;;;6.47;4.68;;;;;;;21.54;94.59;100477.00;5100077;28;20036;-73
2023/06/25 01:01:44;;;;;;;5.72;4.40;;;;;;;21.50;94.77;100478.91;5080596;28;20028;-73
2023/06/25 01:04:19;;;;;;;;;;;;;;;21.48;96.20;100478.50;5073691;28;20099;-73
2023/06/25 01:06:47;;;;;;;7.57;4.45;;;;;;;21.47;96.64;100474.00;5100452;28;19961;-73
2023/06/25 01:09:12;;;;;;;6.07;4.40;;;;;;;21.41;96.18;100472.66;5100319;28;20039;-73
2023/06/25 01:11:38;;;;;;;5.70;4.25;;;;;;;21.37;96.99;100466.13;5082021;28;20027;-73
2023/06/25 01:14:04;;;;;;;7.20;4.18;;;;;;;21.34;97.47;100467.66;5118121;28;20042;-73
2023/06/25 01:16:29;;;;;;;7.53;4.38;;;;;;;21.32;97.55;100463.56;5099939;28;20115;-73
2023/06/25 01:18:58;;;;;;;5.93;4.13;;;;;;;21.27;97.72;100461.81;5099953;28;20028;-73
2023/06/25 01:21:26;;;;;;;4.90;4.20;;;;;;;21.28;97.71;100454.16;5082000;28;20028;-73
2023/06/25 01:23:52;;;;;;;6.97;4.47;;;;;;;21.25;nan;100457.72;5080232;28;20040;-73
2023/06/25 01:26:18;;;;;;;5.85;4.20;;;;;;;21.20;96.58;100454.03;5078794;28;20077;-73
2023/06/25 01:28:43;;;;;;;5.43;4.55;;;;;;;21.22;96.98;100461.28;5046285;28;20044;-73
2023/06/25 01:31:09;;;;;;;5.75;4.68;;;;;;;21.18;96.40;100459.22;5083276;28;20020;-73
2023/06/25 01:33:34;;;;;;;7.32;4.70;;;;;;;21.17;96.62;100463.22;5118149;28;20028;-73
2023/06/25 01:36:00;;;;;;;5.68;4.57;;;;;;;21.14;96.54;100458.28;5082229;28;20036;-73
2023/06/25 01:38:26;;;;;;;5.53;4.20;;;;;;;21.14;95.98;100452.63;5079348;28;20025;-73
2023/06/25 01:40:52;;;;;;;6.28;4.38;;;;;;;21.14;96.28;100460.28;5113930;28;20567;-73
2023/06/25 01:43:17;;;;;;;5.85;4.18;;;;;;;21.11;96.04;100453.38;5099352;28;20031;-73
2023/06/25 01:45:43;;;;;;;5.90;4.70;;;;;;;21.09;96.31;100438.81;5117846;28;20028;-73
2023/06/25 01:48:09;;;;;;;6.10;4.35;;;;;;;21.09;96.17;100441.66;5099567;28;20104;-73
2023/06/25 01:50:35;;;;;;;5.95;4.50;;;;;;;21.07;96.97;100435.53;5117854;28;20031;-73
2023/06/25 01:53:00;;;;;;;5.88;4.30;;;;;;;21.05;97.19;100432.25;5099830;28;20027;-73
2023/06/25 01:55:26;;;;;;;6.32;4.63;;;;;;;21.03;98.01;100436.63;5117685;28;20063;-73
2023/06/25 01:57:51;;;;;;;5.28;4.57;;;;;;;20.98;98.38;100444.22;5082314;28;20031;-73
2023/06/25 02:00:17;;;;;;;6.82;4.72;;;;;;;20.98;98.36;100446.22;5099485;28;20031;-73
2023/06/25 02:02:43;;;;;;;6.03;4.60;;;;;;;20.95;98.77;100439.31;5099790;28;20053;-73
2023/06/25 02:05:09;;;;;;;6.32;4.30;;;;;;;20.93;98.45;100440.84;5117930;28;20027;-73
2023/06/25 02:07:34;;;;;;;6.07;4.68;;;;;;;20.90;98.78;100448.06;5103518;28;20031;-73
2023/06/25 02:10:00;;;;;;;5.13;4.18;;;;;;;20.88;98.65;100446.78;5103488;28;20080;-73
2023/06/25 02:12:25;;;;;;;6.80;4.25;;;;;;;20.85;98.10;100444.69;5121323;28;20081;-73
2023/06/25 02:14:51;;;;;;;5.90;4.55;;;;;;;20.84;98.28;100452.34;5121573;28;20027;-73
2023/06/25 02:17:16;;;;;;;6.13;4.40;;;;;;;20.79;99.26;100449.78;5103632;28;20383;-73
2023/06/25 02:19:42;;;;;;;6.25;4.57;;;;;;;20.78;99.29;100450.94;5051979;28;20028;-73
2023/06/25 02:22:07;;;;;;;6.13;4.80;;;;;;;20.74;99.46;100445.22;5082989;28;20031;-73
2023/06/25 02:24:33;;;;;;;5.40;4.22;;;;;;;20.72;99.42;100436.28;5116950;28;20027;-73
2023/06/25 02:26:58;;;;;;;4.97;4.32;;;;;;;20.73;98.60;100442.78;5102665;28;20024;-73
2023/06/25 02:29:23;;;;;;;7.20;4.78;;;;;;;20.68;99.44;100435.41;5121507;28;20537;-73
2023/06/25 02:31:49;;;;;;;7.47;4.63;;;;;;;20.68;99.39;100432.59;5103039;28;20027;-73
2023/06/25 02:34:16;;;;;;;6.70;4.22;;;;;;;20.66;100.00;100432.13;5084995;28;20035;-73
2023/06/25 02:36:42;;;;;;;7.40;4.70;;;;;;;20.66;100.00;100434.94;5121433;28;20043;-73
2023/06/25 02:39:08;;;;;;;6.45;4.45;;;;;;;20.63;100.00;100427.22;5121007;28;20029;-73
2023/06/25 02:41:33;;;;;;;6.75;4.70;;;;;;;20.56;100.00;100431.84;5120661;28;20035;-73
2023/06/25 02:43:59;;;;;;;6.60;4.53;;;;;;;20.49;100.00;100427.63;5120770;28;20035;-73
2023/06/25 02:46:24;;;;;;;5.97;4.55;;;;;;;20.49;100.00;100426.81;5120941;28;20023;-73
2023/06/25 02:48:50;;;;;;;7.95;4.68;;;;;;;20.49;100.00;100426.81;5120941;28;20051;-73
2023/06/25 02:51:15;;;;;;;6.55;4.70;;;;;;;20.48;100.00;100422.38;5065884;28;20085;-73
2023/06/25 02:53:41;;;;;;;7.05;4.78;;;;;;;20.44;100.00;100427.09;5045782;28;20024;-73
2023/06/25 02:56:06;;;;;;;7.97;5.00;;;;;;;20.42;100.00;100415.34;5049122;28;20031;-73
2023/06/25 02:58:31;;;;;;;6.35;4.78;;;;;;;20.42;100.00;100416.19;5066414;28;20039;-73
2023/06/25 03:00:57;;;;;;;6.13;4.47;;;;;;;20.42;100.00;100416.19;5070057;28;20051;-73
2023/06/25 03:03:22;;;;;;;6.53;4.20;;;;;;;20.37;100.00;100412.81;5097207;28;20463;-73
2023/06/25 03:05:50;;;;;;;5.60;4.82;;;;;;;20.38;100.00;100411.63;5102400;28;20027;-73
2023/06/25 03:08:15;;;;;;;9.25;5.35;;;;;;;20.33;100.00;100404.22;5066550;28;20430;-73
2023/06/25 03:10:40;;;;;;;5.80;4.43;;;;;;;20.37;100.00;100401.53;5102649;28;20028;-73
2023/06/25 03:13:06;;;;;;;6.90;5.10;;;;;;;20.34;100.00;100403.06;5083082;28;20028;-73
2023/06/25 03:15:31;;;;;;;7.65;4.97;;;;;;;20.30;100.00;100407.78;5081875;28;20047;-73
2023/06/25 03:17:57;;;;;;;7.22;4.72;;;;;;;20.31;100.00;100401.78;5113866;28;20387;-73
2023/06/25 03:20:22;;;;;;;7.00;4.63;;;;;;;20.30;100.00;100397.31;5120270;28;20039;-73
2023/06/25 03:22:48;;;;;;;6.70;4.65;;;;;;;20.26;100.00;100389.97;5120285;28;20364;-73
2023/06/25 03:25:14;;;;;;;6.35;4.70;;;;;;;20.27;100.00;100391.59;5081885;28;20116;-73
2023/06/25 03:27:39;;;;;;;6.90;4.78;;;;;;;20.24;100.00;100393.13;5079270;28;20038;-73
2023/06/25 03:30:05;;;;;;;6.28;4.65;;;;;;;20.22;100.00;100384.22;5069531;28;20406;-73
2023/06/25 03:32:31;;;;;;;7.03;5.03;;;;;;;20.21;100.00;100379.75;5043816;28;20031;-73
2023/06/25 03:34:57;;;;;;;5.70;4.60;;;;;;;20.21;100.00;100393.03;5064916;28;20032;-73
2023/06/25 03:37:23;;;;;;;6.13;4.90;;;;;;;20.18;100.00;100388.94;5113753;28;20039;-73
2023/06/25 03:39:48;;;;;;;6.20;4.80;;;;;;;20.16;100.00;100385.66;5101818;28;20035;-73
2023/06/25 03:42:14;;;;;;;7.80;5.25;;;;;;;20.20;100.00;100400.69;5084443;28;20085;-73
2023/06/25 03:44:52;;;;;;;8.73;4.90;;;;;;;20.18;100.00;100397.41;5119834;28;20038;-73
2023/06/25 03:47:17;;;;;;;7.07;4.22;;;;;;;20.19;100.00;100384.94;5101395;28;20388;-73
2023/06/25 03:49:43;;;;;;;7.18;5.10;;;;;;;20.19;100.00;100384.94;5101622;28;20063;-73
2023/06/25 03:52:09;;;;;;;6.47;4.90;;;;;;;20.18;100.00;100388.13;5119764;28;20020;-73
2023/06/25 03:54:34;;;;;;;6.97;4.88;;;;;;;20.14;100.00;100399.28;5064850;28;20024;-73
2023/06/25 03:57:00;;;;;;;5.28;4.63;;;;;;;20.16;100.00;100396.13;5095903;28;20031;-73
2023/06/25 03:59:25;;;;;;;5.90;4.53;;;;;;;20.14;100.00;100398.47;5064363;28;20051;-73
2023/06/25 04:01:50;;;;;;;6.22;4.72;;;;;;;20.10;100.00;100404.03;5082518;28;20042;-73
2023/06/25 04:04:16;;;;;;;5.45;4.13;;;;;;;20.10;100.00;100398.41;5082239;28;20031;-74
2023/06/25 04:06:41;;;;;;;5.90;4.45;;;;;;;20.13;100.00;100408.13;5119336;28;20042;-73
2023/06/25 04:09:07;;;;;;;6.30;4.38;;;;;;;20.12;100.00;100404.50;5119549;28;20023;-73
2023/06/25 04:11:32;;;;;;;5.90;4.53;;;;;;;20.07;100.00;100404.75;5100765;28;20043;-73
2023/06/25 04:13:58;;;;;;;6.20;4.57;;;;;;;20.09;100.00;100405.22;5119226;28;20035;-73
2023/06/25 04:16:23;;;;;;;5.75;4.20;;;;;;;20.06;100.00;100408.75;5119178;28;20118;-73
2023/06/25 04:18:49;;;;;;;8.10;4.60;;;;;;;20.05;100.00;100409.94;5080745;28;20024;-73
2023/06/25 04:21:14;;;;;;;6.20;4.68;;;;;;;20.06;100.00;100408.75;5114102;28;20024;-73
2023/06/25 04:23:39;;;;;;;4.82;4.25;;;;;;;20.07;100.00;100405.56;5119145;28;20056;-73
2023/06/25 04:26:05;;;;;;;7.18;4.80;;;;;;;20.10;100.00;100409.66;5083824;28;20035;-73
2023/06/25 04:28:30;;;;;;;7.18;4.47;;;;;;;20.06;100.00;100409.59;5080001;28;20058;-73
2023/06/25 04:30:56;;;;;;;5.25;4.10;;;;;;;20.10;100.00;100406.84;5055626;28;20479;-73
2023/06/25 04:33:21;;;;;;;8.50;4.93;;;;;;;20.15;100.00;100412.22;5080721;28;20047;-73
2023/06/25 04:35:47;;;;;;;14.30;4.57;;;;;;;20.15;100.00;100400.94;5077057;28;20036;-73
2023/06/25 04:38:13;;;;;;;5.82;4.57;;;;;;;20.18;100.00;100405.06;5083823;28;20084;-73
2023/06/25 04:40:38;;;;;;;7.18;4.68;;;;;;;20.20;100.00;100399.88;5118558;28;20063;-73
2023/06/25 04:43:04;;;;;;;6.15;4.57;;;;;;;20.23;100.00;100397.16;5079899;28;20032;-74
2023/06/25 04:45:29;;;;;;;10.75;4.90;;;;;;;20.29;100.00;100394.88;5113369;28;20388;-73
2023/06/25 04:47:55;;;;;;;6.28;4.75;;;;;;;20.36;100.00;100400.69;5100328;28;20073;-73
2023/06/25 04:50:20;;;;;;;5.35;4.30;;;;;;;20.45;100.00;100392.06;5081777;28;20028;-73
2023/06/25 04:52:46;;;;;;;6.25;4.60;;;;;;;20.52;100.00;100400.69;5083390;28;20110;-73
2023/06/25 04:55:11;;;;;;;6.57;4.65;;;;;;;20.61;100.00;100400.53;5064520;28;20036;-73
2023/06/25 04:57:37;;;;;;;8.63;5.13;;;;;;;20.69;100.00;100391.88;5118034;28;20508;-73
2023/06/25 05:00:04;;;;;;;6.28;4.57;;;;;;;20.81;100.00;100395.78;5081425;28;20038;-73
2023/06/25 05:02:29;;;;;;;8.00;4.88;;;;;;;20.92;100.00;100399.69;5118295;28;20035;-73
2023/06/25 05:04:55;;;;;;;8.20;4.82;;;;;;;21.03;100.00;100395.09;5099948;28;20074;-73
2023/06/25 05:07:21;;;;;;;8.63;5.18;;;;;;;21.15;100.00;100397.00;5080053;28;20035;-73
2023/06/25 05:09:46;;;;;;;7.65;4.70;;;;;;;21.27;100.00;100399.69;5057376;28;20028;-73
2023/06/25 05:12:11;;;;;;;5.75;4.47;;;;;;;21.39;100.00;100396.75;5118312;28;20023;-73
2023/06/25 05:14:37;;;;;;;5.13;4.35;;;;;;;21.52;100.00;100405.09;5118106;28;20039;-73
2023/06/25 05:17:03;;;;;;;7.00;4.57;;;;;;;21.65;100.00;100406.59;5118189;28;20540;-73
2023/06/25 05:19:29;;;;;;;6.63;4.88;;;;;;;21.79;100.00;100392.75;5117954;28;20036;-73
2023/06/25 05:21:54;;;;;;;6.03;4.60;;;;;;;21.93;100.00;100392.22;5118085;28;20031;-73
2023/06/25 05:24:20;;;;;;;6.00;4.88;;;;;;;22.07;100.00;100386.03;5100237;28;20389;-73
2023/06/25 05:26:45;;;;;;;7.13;4.40;;;;;;;22.21;100.00;100394.00;5117725;28;20023;-73
2023/06/25 05:29:10;;;;;;;7.07;4.90;;;;;;;22.36;99.55;100393.03;5099723;28;20031;-73
2023/06/25 05:31:36;;;;;;;5.85;4.38;;;;;;;22.51;98.57;100385.59;5079536;28;20039;-73
2023/06/25 05:34:01;;;;;;;6.50;4.63;;;;;;;22.65;97.99;100388.69;5076752;28;20027;-73
2023/06/25 05:36:28;;;;;;;7.35;5.00;;;;;;;22.81;97.81;100388.53;5117958;28;20040;-73
2023/06/25 05:38:54;;;;;;;8.38;4.50;;;;;;;22.96;99.25;100379.09;5080216;28;20460;-73
2023/06/25 05:41:19;;;;;;;6.75;4.85;;;;;;;23.11;97.69;100382.94;5101771;28;20032;-73
2023/06/25 05:43:45;;;;;;;5.72;4.43;;;;;;;23.25;94.82;100381.53;5067066;28;20442;-73
2023/06/25 05:46:13;;;;;;;7.13;4.50;;;;;;;23.39;93.84;100385.38;5122177;28;20032;-73
2023/06/25 05:48:39;;;;;;;7.18;4.10;;;;;;;23.55;92.85;100385.16;5121926;28;20487;-73
2023/06/25 05:51:04;;;;;;;7.22;4.38;;;;;;;23.69;92.20;100393.03;5103632;28;20023;-73
2023/06/25 05:53:37;;;;;;;7.78;4.65;;;;;;;23.84;90.93;100392.03;5103736;28;20065;-73
2023/06/25 05:56:03;;;;;;;7.32;4.32;;;;;;;23.99;90.83;100392.22;5121997;28;20479;-73
2023/06/25 05:58:28;;;;;;;5.40;4.72;;;;;;;24.14;88.92;100384.66;5103226;28;20028;-74
2023/06/25 06:00:54;;;;;;;6.20;4.20;;;;;;;24.28;88.35;100382.78;5050286;28;20454;-74
2023/06/25 06:03:19;;;;;;;8.23;4.93;;;;;;;24.42;88.80;100392.63;5086505;28;20031;-74
2023/06/25 06:05:44;;;;;;;7.70;4.75;;;;;;;24.58;86.34;100392.41;5121737;28;20024;-74
2023/06/25 06:08:10;;;;;;;4.93;4.22;;;;;;;24.68;87.89;100395.34;5121690;28;20031;-74
2023/06/25 06:10:35;;;;;;;6.43;3.88;;;;;;;24.82;85.45;100388.13;5121711;28;20028;-74
2023/06/25 06:13:01;;;;;;;4.20;3.72;;;;;;;24.97;84.55;100389.88;5121271;28;20536;-74
2023/06/25 06:15:26;;;;;;;5.20;4.13;;;;;;;25.10;83.92;100399.69;5121344;28;20023;-74
2023/06/25 06:17:52;;;;;;;6.30;4.10;;;;;;;25.26;82.64;100384.38;5121576;28;20027;-74
2023/06/25 06:20:17;;;;;;;4.32;3.90;;;;;;;25.39;81.75;100383.66;5121426;28;20380;-74
2023/06/25 06:22:43;;;;;;;5.40;4.30;;;;;;;25.53;81.53;100377.22;5121847;28;20438;-75
2023/06/25 06:25:09;;;;;;;6.05;3.90;;;;;;;25.66;80.66;100374.00;5085617;28;20027;-75
2023/06/25 06:27:34;;;;;;;5.57;3.90;;;;;;;25.80;80.03;100376.94;5120627;28;20032;-75
2023/06/25 06:30:00;;;;;;;5.50;4.10;;;;;;;25.91;79.58;100380.66;5103082;28;20035;-75
2023/06/25 06:32:25;;;;;;;5.38;4.13;;;;;;;26.05;78.74;100377.84;5083194;28;20101;-75
2023/06/25 06:34:51;;;;;;;4.75;3.88;;;;;;;26.17;77.93;100370.94;5082841;28;20032;-75
2023/06/25 06:37:16;;;;;;;5.78;4.00;;;;;;;26.32;78.22;100368.09;5114508;28;20032;-75
2023/06/25 06:39:41;;;;;;;4.95;3.47;;;;;;;26.41;77.05;100369.34;5065706;28;20024;-76
2023/06/25 06:42:07;;;;;;;5.88;3.70;;;;;;;26.53;76.83;100371.00;5078966;28;20024;-75
2023/06/25 06:44:32;;;;;;;6.80;4.18;;;;;;;26.70;77.36;100364.47;5121142;28;20038;-75
2023/06/25 06:46:58;;;;;;;7.10;4.20;;;;;;;26.85;74.96;100370.97;5121067;28;20032;-76
2023/06/25 06:49:23;;;;;;;6.07;4.00;;;;;;;26.99;75.27;100360.78;5102459;28;20062;-75
2023/06/25 06:51:49;;;;;;;6.03;4.18;;;;;;;27.12;74.14;100370.53;5120537;28;20467;-76
2023/06/25 06:54:14;;;;;;;6.78;4.40;;;;;;;27.25;73.46;100371.75;5102633;28;20364;-76
2023/06/25 06:56:40;;;;;;;5.15;4.00;;;;;;;27.42;72.57;100372.91;5085303;28;20024;-76
2023/06/25 06:59:05;;;;;;;4.70;4.03;;;;;;;27.57;71.33;100374.47;5082063;28;20031;-76
2023/06/25 07:01:32;;;;;;;6.05;3.70;;;;;;;27.71;70.40;100375.66;5085734;28;20038;-76
2023/06/25 07:03:58;;;;;;;8.68;4.05;;;;;;;27.82;69.86;100365.81;5082232;28;20036;-76
2023/06/25 07:06:23;;;;;;;5.30;3.80;;;;;;;27.95;70.11;100369.03;5081389;28;20028;-76
2023/06/25 07:08:49;;;;;;;5.75;4.03;;;;;;;28.10;70.15;100366.88;5113941;28;20028;-76
2023/06/25 07:11:16;;;;;;;4.95;3.90;;;;;;;28.24;68.66;100363.94;5081824;28;20082;-76
2023/06/25 07:13:43;;;;;;;4.38;3.45;;;;;;;28.39;67.82;100363.81;5065484;28;20024;-74
2023/06/25 07:16:09;;;;;;;5.20;4.10;;;;;;;28.55;66.98;100364.13;5113914;28;20384;-74
2023/06/25 07:18:34;;;;;;;5.15;3.60;;;;;;;28.68;66.91;100367.31;5068812;28;20115;-74
2023/06/25 07:21:00;;;;;;;4.75;3.78;;;;;;;28.81;65.81;100367.59;5082139;28;20077;-74
2023/06/25 07:23:25;;;;;;;4.65;3.80;;;;;;;28.95;64.77;100367.47;5102072;28;20365;-74
2023/06/25 07:25:51;;;;;;;9.57;4.38;;;;;;;29.10;65.12;100357.50;5102384;28;20042;-74
2023/06/25 07:28:16;;;;;;;5.05;3.88;;;;;;;29.25;64.80;100365.94;5101363;28;20372;-74
2023/06/25 07:30:42;;;;;;;5.32;3.40;;;;;;;29.41;64.03;100363.28;5102183;28;20032;-74
2023/06/25 07:33:07;;;;;;;4.57;3.88;;;;;;;29.49;63.13;100361.97;5119762;28;20031;-75
2023/06/25 07:35:33;;;;;;;4.55;3.63;;;;;;;29.61;62.26;100361.41;5101921;28;20039;-74
2023/06/25 07:37:58;;;;;;;7.22;3.70;;;;;;;29.75;61.57;100353.91;5081744;28;20032;-74
2023/06/25 07:40:24;;;;;;;4.07;3.47;;;;;;;29.90;61.03;100358.19;5081534;28;20020;-74
2023/06/25 07:42:49;;;;;;;4.55;3.92;;;;;;;30.03;60.54;100362.09;5118796;28;20049;-74
2023/06/25 07:45:15;;;;;;;6.13;3.50;;;;;;;30.13;60.62;100353.78;5101704;28;20042;-74
2023/06/25 07:47:40;;;;;;;7.53;3.97;;;;;;;30.24;59.96;100358.13;5119608;28;20122;-75
2023/06/25 07:50:07;;;;;;;7.10;3.85;;;;;;;30.33;59.34;100362.50;5081488;28;20031;-74
2023/06/25 07:52:32;;;;;;;5.30;3.45;;;;;;;30.46;58.79;100352.06;5101155;28;20034;-74
2023/06/25 07:54:58;;;;;;;5.28;3.63;;;;;;;30.61;57.94;100350.56;5119821;28;20027;-75
2023/06/25 07:57:23;;;;;;;4.00;3.50;;;;;;;30.76;57.94;100354.00;5100998;28;20035;-74
2023/06/25 07:59:49;;;;;;;5.85;3.35;;;;;;;30.87;57.00;100359.53;5081153;28;20020;-74
2023/06/25 08:02:14;;;;;;;6.68;3.60;;;;;;;31.01;56.62;100361.34;5118980;28;20480;-74
2023/06/25 08:04:40;;;;;;;3.20;2.90;;;;;;;31.13;55.55;100358.66;5080096;28;20500;-74
2023/06/25 08:07:05;;;;;;;4.35;3.22;;;;;;;31.28;55.71;100353.44;5100508;28;20038;-74
2023/06/25 08:09:31;;;;;;;4.30;3.20;;;;;;;31.41;54.93;100355.69;5101245;28;20104;-74
2023/06/25 08:11:57;;;;;;;4.60;3.38;;;;;;;31.55;54.25;100349.66;5118952;28;20024;-74
2023/06/25 08:14:22;;;;;;;4.00;3.60;;;;;;;31.65;54.25;100345.75;5084093;28;20067;-75
2023/06/25 08:16:48;;;;;;;5.03;3.33;;;;;;;31.80;53.88;100349.91;5101082;28;20122;-74
2023/06/25 08:19:13;;;;;;;5.63;3.40;;;;;;;31.92;53.36;100347.63;5101187;28;20031;-75
2023/06/25 08:21:39;;;;;;;4.53;3.50;;;;;;;32.08;52.95;100344.78;5118997;28;20488;-75
2023/06/25 08:24:05;;;;;;;4.47;3.50;;;;;;;32.21;52.57;100345.72;5080826;28;20024;-75
2023/06/25 08:26:30;;;;;;;6.38;3.20;;;;;;;32.31;52.91;100343.00;5045740;28;20024;-75
2023/06/25 08:28:56;;;;;;;5.07;2.97;;;;;;;32.40;52.47;100335.41;5092251;28;20024;-75
2023/06/25 08:31:21;;;;;;;6.60;3.17;;;;;;;32.53;51.83;100338.38;5100877;28;20038;-75
2023/06/25 08:33:47;;;;;;;4.43;3.40;;;;;;;32.69;51.62;100337.56;5063986;28;20036;-75
2023/06/25 08:36:13;;;;;;;3.60;3.17;;;;;;;32.80;51.06;100340.97;5117399;28;20043;-75
2023/06/25 08:38:38;;;;;;;4.32;3.30;;;;;;;32.95;50.68;100329.88;5083971;28;20039;-75
2023/06/25 08:41:04;;;;;;;6.38;3.38;;;;;;;33.06;50.49;100335.38;5118117;28;20043;-75
2023/06/25 08:43:29;;;;;;;4.85;3.00;;;;;;;33.25;49.91;100337.28;5066991;28;20051;-75
2023/06/25 08:45:55;;;;;;;5.30;3.33;;;;;;;33.31;48.85;100320.25;5080253;28;20028;-75
2023/06/25 08:48:22;;;;;;;4.95;3.22;;;;;;;33.45;49.50;100316.97;5109775;28;20043;-75
2023/06/25 08:50:56;;;;;;;5.35;3.10;;;;;;;33.64;49.02;100323.03;5100590;28;20024;-75
2023/06/25 08:53:24;;;;;;;3.90;3.20;;;;;;;33.71;48.49;100317.03;5080219;28;20038;-75
2023/06/25 08:55:50;;;;;;;6.15;3.20;;;;;;;33.87;47.95;100316.94;5117879;28;20024;-75
2023/06/25 08:58:15;;;;;;;5.38;3.05;;;;;;;33.96;47.64;100322.84;5082851;28;20470;-75
2023/06/25 09:00:41;;;;;;;4.82;3.42;;;;;;;34.11;47.32;100313.75;5118295;28;20031;-75
2023/06/25 09:03:06;;;;;;;4.18;3.33;;;;;;;34.18;47.38;100325.03;5118311;28;20032;-75
2023/06/25 09:05:33;;;;;;;4.03;3.47;;;;;;;34.32;46.79;100321.69;5099975;28;20035;-75
2023/06/25 09:07:58;;;;;;;4.32;3.08;;;;;;;34.44;46.66;100322.94;5080092;28;20024;-75
2023/06/25 09:10:24;;;;;;;5.18;3.40;;;;;;;34.50;45.75;100338.38;5099266;28;20032;-75
2023/06/25 09:12:50;;;;;;;4.38;3.17;;;;;;;34.65;45.60;100332.97;5117874;28;20063;-75
2023/06/25 09:15:23;;;;;;;3.75;3.13;;;;;;;34.76;45.87;100333.38;5100201;28;20024;-75
2023/06/25 09:17:49;;;;;;;4.05;2.85;;;;;;;34.91;45.46;100333.72;5066679;28;20031;-75
2023/06/25 09:20:15;;;;;;;3.35;3.05;;;;;;;34.92;43.81;100330.34;5118108;28;20035;-75
2023/06/25 09:22:53;;;;;;;5.80;3.08;;;;;;;35.12;43.84;100327.16;5100005;28;20032;-75
2023/06/25 09:25:20;;;;;;;3.78;3.03;;;;;;;35.17;41.64;100320.00;5118481;28;20035;-75
2023/06/25 09:27:46;;;;;;;4.22;3.20;;;;;;;35.30;43.42;100326.53;5081197;28;20047;-75
2023/06/25 09:30:12;;;;;;;3.70;3.05;;;;;;;35.38;42.04;100320.47;5100016;28;20031;-75
2023/06/25 09:32:51;;;;;;;3.83;2.80;;;;;;;35.51;43.52;100324.09;5117864;28;20039;-76
2023/06/25 09:35:25;;;;;;;3.88;2.58;;;;;;;35.68;42.90;100322.63;5062992;28;20509;-75
2023/06/25 09:37:51;;;;;;;4.38;2.70;;;;;;;35.81;42.90;100322.53;5098754;28;20536;-75
2023/06/25 09:40:17;;;;;;;4.07;2.70;;;;;;;35.94;42.82;100320.34;5099649;28;20032;-75
2023/06/25 09:42:43;;;;;;;3.63;2.95;;;;;;;36.08;40.35;100313.22;5099207;28;20058;-75
2023/06/25 09:45:10;;;;;;;4.38;3.13;;;;;;;36.27;41.48;100307.47;5099861;28;20039;-75
2023/06/25 09:47:36;;;;;;;6.32;2.80;;;;;;;36.38;39.44;100316.50;5099604;28;20048;-76
2023/06/25 09:50:03;;;;;;;3.20;2.90;;;;;;;36.45;40.08;100304.66;5079548;28;20032;-76
2023/06/25 09:52:28;;;;;;;4.45;2.80;;;;;;;36.63;40.65;100315.47;5078137;28;20024;-75
2023/06/25 09:54:54;;;;;;;2.95;2.65;;;;;;;36.82;40.29;100310.50;5109197;28;20028;-75
2023/06/25 09:57:19;;;;;;;3.30;2.85;;;;;;;36.96;39.75;100309.88;5082532;28;20028;-75
2023/06/25 09:59:45;;;;;;;5.03;3.17;;;;;;;36.98;36.92;100295.72;5079405;28;20039;-75
2023/06/25 10:02:11;;;;;;;4.53;3.00;;;;;;;37.08;38.61;100299.44;5116024;28;20422;-76
2023/06/25 10:04:37;;;;;;;3.15;2.85;;;;;;;37.22;38.31;100300.88;5099709;28;20032;-75
2023/06/25 10:07:02;;;;;;;3.80;3.00;;;;;;;37.32;36.39;100296.69;5062667;28;20095;-76
2023/06/25 10:09:28;;;;;;;3.10;2.80;;;;;;;37.40;36.10;100305.84;5082840;28;20051;-76
2023/06/25 10:11:55;;;;;;;5.35;3.28;;;;;;;37.43;36.64;100304.88;5099157;28;20029;-76
2023/06/25 10:14:21;;;;;;;4.25;2.88;;;;;;;37.52;37.19;100299.88;5079209;28;20039;-74
2023/06/25 10:16:55;;;;;;;3.38;3.03;;;;;;;37.59;36.45;100309.56;5095839;28;20024;-74
2023/06/25 10:19:24;;;;;;;4.22;3.13;;;;;;;37.68;35.85;100300.81;5075805;28;20040;-73
2023/06/25 10:22:03;;;;;;;4.50;3.17;;;;;;;37.76;34.29;100296.28;5082354;28;20502;-73
2023/06/25 10:24:41;;;;;;;3.25;2.95;;;;;;;37.84;35.59;100297.56;5048525;28;20024;-73
2023/06/25 10:27:25;;;;;;;4.63;3.00;;;;;;;37.94;34.18;100290.41;5118828;28;20031;-73
2023/06/25 10:29:54;;;;;;;4.03;2.85;;;;;;;38.03;35.88;100304.13;5121195;28;20031;-73
2023/06/25 10:32:27;;;;;;;4.82;2.90;;;;;;;38.16;34.90;100300.97;5119896;27;20552;-74
2023/06/25 10:35:00;;;;;;;3.28;2.95;;;;;;;38.23;33.45;100301.44;5095568;28;20051;-74
2023/06/25 10:37:29;;;;;;;4.22;3.00;;;;;;;38.26;31.84;100290.16;5103960;28;20545;-75
2023/06/25 10:40:04;;;;;;;6.28;3.00;;;;;;;38.37;33.92;100287.50;5121077;28;20027;-75
2023/06/25 10:42:31;;;;;;;4.15;3.10;;;;;;;38.44;34.51;100292.94;5102843;28;20031;-74
2023/06/25 10:44:57;;;;;;;4.70;3.03;;;;;;;38.50;32.54;100301.78;5103054;28;20039;-75
2023/06/25 10:47:22;;;;;;;3.97;3.20;;;;;;;38.60;31.82;100288.81;5085581;28;20098;-75
2023/06/25 10:49:48;;;;;;;4.13;3.10;;;;;;;38.63;31.21;100288.63;5120997;28;20387;-75
2023/06/25 10:52:13;;;;;;;5.05;3.20;;;;;;;38.72;32.54;100289.84;5120918;28;20024;-76
2023/06/25 10:54:39;;;;;;;5.22;3.17;;;;;;;38.78;33.47;100287.88;5088807;28;20020;-75
2023/06/25 10:57:05;;;;;;;5.03;3.20;;;;;;;38.88;32.75;100293.13;5099062;28;20049;-75
2023/06/25 10:59:31;;;;;;;5.35;3.75;;;;;;;38.95;31.73;100291.13;5120740;28;20092;-75
2023/06/25 11:02:06;;;;;;;7.03;3.92;;;;;;;39.05;32.39;100295.56;5065624;28;20028;-75
2023/06/25 11:04:32;;;;;;;4.75;3.35;;;;;;;39.15;32.25;100293.41;5083149;28;20099;-75
2023/06/25 11:06:57;;;;;;;4.50;2.83;;;;;;;39.23;32.82;100298.31;5102241;28;20027;-75
2023/06/25 11:09:23;;;;;;;4.13;3.72;;;;;;;39.30;30.42;100300.81;5082173;28;20046;-75
2023/06/25 11:11:51;;;;;;;3.45;3.15;;;;;;;39.38;30.95;100294.66;5099299;28;20073;-75
2023/06/25 11:14:17;;;;;;;3.63;2.97;;;;;;;39.46;30.70;100301.66;5120621;28;20035;-76
2023/06/25 11:16:46;;;;;;;5.65;3.45;;;;;;;39.49;30.34;100298.56;5120420;28;20515;-75
2023/06/25 11:19:11;;;;;;;3.40;3.10;;;;;;;39.58;30.98;100286.03;5112740;28;20102;-74